TAF LDZA 112325Z 1200/1300 22006KT CAVOK
                 TX18/1212Z TN12/1223Z
    PROB40 TEMPO 1201/1207 RA BKN014 BKN030
    PROB40 TEMPO 1210/1219 4000 TSRA FEW040CB=
TAF LDZA 111725Z 1118/1218 VRB02KT CAVOK
                 TX24/1118Z TN12/1204Z
           BECMG 1118/1120 27009KT
           TEMPO 1203/1207 RA BKN014 BKN030
    PROB40 TEMPO 1211/1218 TSRA FEW045CB=
TAF LDZA 111125Z 1112/1212 VRB02KT CAVOK
                 TX28/1114Z TN10/1203Z
           BECMG 1118/1120 27010KT
           TEMPO 1123/1205 RA BKN014
    PROB40 TEMPO 1205/1212 4000 TSRA SCT010 SCT025CB BKN030=
TAF LDZA 110525Z 1106/1206 VRB02KT CAVOK
                 TX28/1114Z TN10/1203Z
    PROB40 TEMPO 1200/1206 RA BKN014
    PROB30 TEMPO 1203/1206 4000 TSRA SCT010 SCT025CB BKN030=
TAF LDZA 102325Z 1100/1200 22005KT CAVOK
                 TX28/1114Z TN09/1106Z=
TAF LDZA 101725Z 1018/1118 22008KT CAVOK
                 TX28/1114Z TN09/1106Z
           BECMG 1018/1020 22005KT=